createdAt,value
2016-09-16T00:00:32.190Z,22.31
2016-09-16T00:01:27.509Z,22.31
2016-09-16T00:02:33.519Z,22.31
2016-09-16T00:03:22.659Z,22.31
2016-09-16T00:04:22.210Z,22.32
2016-09-16T00:05:28.986Z,22.32
2016-09-16T00:06:33.027Z,22.31
2016-09-16T00:07:33.081Z,22.32
2016-09-16T00:08:27.442Z,22.32
2016-09-16T00:09:23.564Z,22.32
2016-09-16T00:10:22.722Z,22.31
2016-09-16T00:11:28.333Z,22.31
2016-09-16T00:12:25.269Z,22.32
2016-09-16T00:13:33.281Z,22.32
2016-09-16T00:14:23.849Z,22.85
2016-09-16T00:15:21.499Z,22.90
2016-09-16T00:16:27.185Z,22.93
2016-09-16T00:17:29.403Z,22.95
2016-09-16T00:18:35.176Z,22.95
2016-09-16T00:19:34.198Z,22.96
2016-09-16T00:20:33.042Z,22.96
2016-09-16T00:21:39.225Z,22.97
2016-09-16T00:22:30.577Z,22.98
2016-09-16T00:23:23.575Z,22.99
2016-09-16T00:24:43.751Z,22.94
2016-09-16T00:25:35.399Z,22.98
2016-09-16T00:26:38.028Z,22.66
2016-09-16T00:27:27.747Z,22.46
2016-09-16T00:28:38.940Z,22.40
2016-09-16T00:29:30.811Z,22.38
2016-09-16T00:30:19.977Z,22.36
2016-09-16T00:31:22.229Z,22.36
2016-09-16T00:32:22.222Z,22.34
2016-09-16T00:33:27.147Z,22.35
2016-09-16T00:34:38.221Z,22.35
2016-09-16T00:35:33.242Z,22.34
2016-09-16T00:36:38.671Z,22.35
2016-09-16T00:37:27.237Z,22.34
2016-09-16T00:38:27.120Z,22.36
2016-09-16T00:39:27.329Z,22.35
2016-09-16T00:40:33.952Z,22.35
2016-09-16T00:41:23.948Z,22.35
2016-09-16T00:42:33.306Z,22.35
2016-09-16T00:43:29.083Z,22.34
2016-09-16T00:44:33.571Z,22.33
2016-09-16T00:45:27.905Z,22.34
2016-09-16T00:46:28.901Z,22.34
2016-09-16T00:47:27.983Z,22.35
2016-09-16T00:48:32.227Z,22.34
2016-09-16T00:49:34.463Z,22.34
2016-09-16T00:50:32.789Z,22.34
2016-09-16T00:51:28.548Z,22.34
2016-09-16T00:52:19.236Z,22.35
2016-09-16T00:53:31.657Z,22.40
2016-09-16T00:54:31.518Z,22.34
2016-09-16T00:55:25.895Z,22.34
2016-09-16T00:56:34.098Z,22.34
2016-09-16T00:57:24.986Z,22.33
2016-09-16T00:58:32.580Z,22.32
2016-09-16T00:59:32.648Z,22.33
2016-09-16T01:00:32.173Z,22.35
2016-09-16T01:01:35.145Z,22.33
2016-09-16T01:02:37.428Z,22.34
2016-09-16T01:03:34.082Z,22.33
2016-09-16T01:04:27.291Z,22.34
2016-09-16T01:05:28.226Z,22.34
2016-09-16T01:06:33.462Z,22.34
2016-09-16T01:07:34.250Z,22.33
2016-09-16T01:08:22.258Z,22.33
2016-09-16T01:09:24.768Z,22.33
2016-09-16T01:10:25.493Z,22.33
2016-09-16T01:11:27.818Z,22.34
2016-09-16T01:12:32.934Z,22.34
2016-09-16T01:13:28.799Z,22.85
2016-09-16T01:14:27.160Z,22.91
2016-09-16T01:15:27.592Z,22.41
2016-09-16T01:16:29.633Z,22.37
2016-09-16T01:17:27.019Z,22.36
2016-09-16T01:18:25.757Z,22.35
2016-09-16T01:19:28.958Z,22.34
2016-09-16T01:20:32.281Z,22.34
2016-09-16T01:21:27.128Z,22.33
2016-09-16T01:22:27.953Z,22.33
2016-09-16T01:23:28.081Z,22.33
2016-09-16T01:24:39.978Z,22.33
2016-09-16T01:25:20.882Z,22.33
2016-09-16T01:26:28.963Z,22.33
2016-09-16T01:27:29.981Z,22.32
2016-09-16T01:28:26.779Z,22.33
2016-09-16T01:29:33.691Z,22.33
2016-09-16T01:30:33.774Z,22.32
2016-09-16T01:31:39.068Z,22.33
2016-09-16T01:32:33.546Z,22.32
2016-09-16T01:33:28.530Z,22.32
2016-09-16T01:34:27.244Z,22.32
2016-09-16T01:35:24.496Z,22.33
2016-09-16T01:36:33.520Z,22.33
2016-09-16T01:37:33.875Z,22.33
2016-09-16T01:38:28.566Z,22.33
2016-09-16T01:39:24.376Z,22.32
2016-09-16T01:40:25.815Z,22.32
2016-09-16T01:41:35.244Z,22.33
2016-09-16T01:42:30.030Z,22.36
2016-09-16T01:43:27.765Z,22.86
2016-09-16T01:44:24.764Z,22.91
2016-09-16T01:45:27.996Z,22.93
2016-09-16T01:46:32.312Z,22.95
2016-09-16T01:47:28.938Z,22.95
2016-09-16T01:48:33.626Z,22.96
2016-09-16T01:49:27.304Z,22.97
2016-09-16T01:50:32.539Z,22.96
2016-09-16T01:51:37.124Z,22.96
2016-09-16T01:52:23.421Z,22.97
2016-09-16T01:53:23.454Z,22.97
2016-09-16T01:54:33.638Z,22.62
2016-09-16T01:55:22.297Z,22.43
2016-09-16T01:56:36.329Z,22.38
2016-09-16T01:57:34.498Z,22.35
2016-09-16T01:58:26.948Z,22.37
2016-09-16T01:59:19.096Z,22.34
2016-09-16T02:00:30.002Z,22.33
2016-09-16T02:01:23.206Z,22.35
2016-09-16T02:02:23.372Z,22.32
2016-09-16T02:03:27.576Z,22.33
2016-09-16T02:04:32.326Z,22.32
2016-09-16T02:05:23.950Z,22.33
2016-09-16T02:06:33.551Z,22.33
2016-09-16T02:07:32.260Z,22.33
2016-09-16T02:08:32.250Z,22.32
2016-09-16T02:09:26.745Z,22.32
2016-09-16T02:10:26.355Z,22.33
2016-09-16T02:11:23.386Z,22.31
2016-09-16T02:12:27.996Z,22.32
2016-09-16T02:13:22.590Z,22.32
2016-09-16T02:14:34.697Z,22.32
2016-09-16T02:15:22.968Z,22.33
2016-09-16T02:16:33.543Z,22.31
2016-09-16T02:17:24.448Z,22.84
2016-09-16T02:18:28.322Z,22.90
2016-09-16T02:19:25.385Z,22.92
2016-09-16T02:20:32.048Z,22.41
2016-09-16T02:21:29.311Z,22.36
2016-09-16T02:22:29.279Z,22.33
2016-09-16T02:23:33.130Z,22.33
2016-09-16T02:24:29.209Z,22.32
2016-09-16T02:25:24.098Z,22.31
2016-09-16T02:26:33.262Z,22.31
2016-09-16T02:27:32.796Z,22.31
2016-09-16T02:28:33.124Z,22.30
2016-09-16T02:29:28.926Z,22.30
2016-09-16T02:30:32.764Z,22.30
2016-09-16T02:31:27.119Z,22.34
2016-09-16T02:32:28.541Z,22.30
2016-09-16T02:33:26.680Z,22.29
2016-09-16T02:34:37.943Z,22.29
2016-09-16T02:35:22.020Z,22.29
2016-09-16T02:36:27.803Z,22.29
2016-09-16T02:37:22.669Z,22.28
2016-09-16T02:38:28.114Z,22.83
2016-09-16T02:39:28.029Z,22.35
2016-09-16T02:40:30.237Z,22.32
2016-09-16T02:41:33.683Z,22.31
2016-09-16T02:42:32.313Z,22.30
2016-09-16T02:43:31.295Z,22.29
2016-09-16T02:44:27.406Z,22.29
2016-09-16T02:45:39.004Z,22.29
2016-09-16T02:46:25.890Z,22.29
2016-09-16T02:47:34.065Z,22.29
2016-09-16T02:48:32.950Z,22.29
2016-09-16T02:49:30.076Z,22.28
2016-09-16T02:50:23.358Z,22.28
2016-09-16T02:51:32.275Z,22.28
2016-09-16T02:52:30.305Z,22.27
2016-09-16T02:53:29.606Z,22.28
2016-09-16T02:54:24.454Z,22.28
2016-09-16T02:55:34.334Z,22.28
2016-09-16T02:56:28.660Z,22.27
2016-09-16T02:57:32.965Z,22.27
2016-09-16T02:58:28.394Z,22.27
2016-09-16T02:59:28.832Z,22.26
2016-09-16T03:00:34.582Z,22.26
2016-09-16T03:01:27.985Z,22.26
2016-09-16T03:02:29.387Z,22.26
2016-09-16T03:03:27.746Z,22.26
2016-09-16T03:04:17.468Z,22.25
2016-09-16T03:05:28.730Z,22.25
2016-09-16T03:06:33.103Z,22.25
2016-09-16T03:07:27.075Z,22.25
2016-09-16T03:08:26.586Z,22.25
2016-09-16T03:09:32.625Z,22.26
2016-09-16T03:10:34.146Z,22.27
2016-09-16T03:11:32.435Z,22.26
2016-09-16T03:12:39.394Z,22.25
2016-09-16T03:13:29.318Z,22.23
2016-09-16T03:14:24.765Z,22.24
2016-09-16T03:15:33.093Z,22.25
2016-09-16T03:16:23.860Z,22.25
2016-09-16T03:17:25.505Z,22.24
2016-09-16T03:18:30.012Z,22.24
2016-09-16T03:19:25.723Z,22.25
2016-09-16T03:20:27.779Z,22.24
2016-09-16T03:21:28.319Z,22.24
2016-09-16T03:22:24.926Z,22.24
2016-09-16T03:23:35.029Z,22.24
2016-09-16T03:24:26.131Z,22.24
2016-09-16T03:25:33.772Z,22.24
2016-09-16T03:26:23.302Z,22.23
2016-09-16T03:27:28.012Z,22.24
2016-09-16T03:28:34.376Z,22.24
2016-09-16T03:29:28.163Z,22.23
2016-09-16T03:30:28.346Z,22.23
2016-09-16T03:31:32.002Z,22.23
2016-09-16T03:32:28.953Z,22.23
2016-09-16T03:33:33.419Z,22.23
2016-09-16T03:34:22.786Z,22.23
2016-09-16T03:35:26.757Z,22.23
2016-09-16T03:36:34.249Z,22.24
2016-09-16T03:37:31.501Z,22.24
2016-09-16T03:38:32.314Z,22.23
2016-09-16T03:39:28.431Z,22.23
2016-09-16T03:40:22.578Z,22.24
2016-09-16T03:41:27.903Z,22.24
2016-09-16T03:42:33.264Z,22.24
2016-09-16T03:43:39.597Z,22.25
2016-09-16T03:44:29.162Z,22.25
2016-09-16T03:45:38.967Z,22.25
2016-09-16T03:46:26.931Z,22.25
2016-09-16T03:47:33.679Z,22.23
2016-09-16T03:48:33.457Z,22.24
2016-09-16T03:49:38.368Z,22.24
2016-09-16T03:50:32.622Z,22.25
2016-09-16T03:51:33.887Z,22.24
2016-09-16T03:52:30.369Z,22.24
2016-09-16T03:53:21.880Z,22.24
2016-09-16T03:54:30.508Z,22.24
2016-09-16T03:55:30.701Z,22.29
2016-09-16T03:56:34.693Z,22.24
2016-09-16T03:57:21.806Z,22.24
2016-09-16T03:58:26.766Z,22.24
2016-09-16T03:59:24.232Z,22.24
2016-09-16T04:00:27.760Z,22.25
2016-09-16T04:01:32.966Z,22.24
2016-09-16T04:02:32.223Z,22.24
2016-09-16T04:03:32.885Z,22.25
2016-09-16T04:04:15.549Z,22.24
2016-09-16T04:05:22.367Z,22.24
2016-09-16T04:06:39.091Z,22.24
2016-09-16T04:07:28.201Z,22.25
2016-09-16T04:08:33.682Z,22.24
2016-09-16T04:09:25.171Z,22.23
2016-09-16T04:10:32.103Z,22.24
2016-09-16T04:11:28.472Z,22.23
2016-09-16T04:12:34.233Z,22.23
2016-09-16T04:13:31.447Z,22.22
2016-09-16T04:14:30.737Z,22.24
2016-09-16T04:15:32.366Z,22.24
2016-09-16T04:16:36.787Z,22.24
2016-09-16T04:17:29.883Z,22.24
2016-09-16T04:18:33.300Z,22.24
2016-09-16T04:19:32.735Z,22.24
2016-09-16T04:20:32.113Z,22.22
2016-09-16T04:21:27.785Z,22.23
2016-09-16T04:22:22.832Z,22.23
2016-09-16T04:23:33.465Z,22.27
2016-09-16T04:24:26.845Z,22.77
2016-09-16T04:25:32.576Z,22.81
2016-09-16T04:26:37.845Z,22.85
2016-09-16T04:27:23.402Z,22.86
2016-09-16T04:28:33.093Z,22.52
2016-09-16T04:29:19.891Z,22.34
2016-09-16T04:30:28.595Z,22.29
2016-09-16T04:31:26.971Z,22.26
2016-09-16T04:32:23.401Z,22.26
2016-09-16T04:33:33.405Z,22.25
2016-09-16T04:34:25.970Z,22.27
2016-09-16T04:35:23.314Z,22.32
2016-09-16T04:36:28.137Z,22.24
2016-09-16T04:37:28.779Z,22.24
2016-09-16T04:38:34.358Z,22.20
2016-09-16T04:39:22.197Z,22.23
2016-09-16T04:40:32.563Z,22.27
2016-09-16T04:41:37.222Z,22.24
2016-09-16T04:42:29.101Z,22.23
2016-09-16T04:43:33.988Z,22.22
2016-09-16T04:44:25.024Z,22.22
2016-09-16T04:45:33.874Z,22.23
2016-09-16T04:46:33.379Z,22.25
2016-09-16T04:47:32.876Z,22.24
2016-09-16T04:48:27.854Z,22.24
2016-09-16T04:49:35.288Z,22.24
2016-09-16T04:50:28.601Z,22.24
2016-09-16T04:51:21.533Z,22.25
2016-09-16T04:52:34.638Z,22.25
2016-09-16T04:53:30.923Z,22.25
2016-09-16T04:54:33.068Z,22.26
2016-09-16T04:55:28.582Z,22.80
2016-09-16T04:56:29.685Z,22.85
2016-09-16T04:57:38.050Z,22.87
2016-09-16T04:58:22.410Z,22.88
2016-09-16T04:59:36.599Z,22.90
2016-09-16T05:00:21.553Z,22.90
2016-09-16T05:01:27.900Z,22.37
2016-09-16T05:02:33.234Z,22.33
2016-09-16T05:03:33.305Z,22.30
2016-09-16T05:04:22.449Z,22.28
2016-09-16T05:05:28.655Z,22.28
2016-09-16T05:06:37.104Z,22.27
2016-09-16T05:07:30.718Z,22.27
2016-09-16T05:08:28.735Z,22.28
2016-09-16T05:09:35.197Z,22.27
2016-09-16T05:10:31.665Z,22.26
2016-09-16T05:11:28.151Z,22.25
2016-09-16T05:12:33.397Z,22.26
2016-09-16T05:13:32.403Z,22.27
2016-09-16T05:14:33.581Z,22.26
2016-09-16T05:15:27.194Z,22.26
2016-09-16T05:16:28.175Z,22.26
2016-09-16T05:17:27.135Z,22.26
2016-09-16T05:18:46.963Z,22.27
2016-09-16T05:19:33.407Z,22.26
2016-09-16T05:20:27.656Z,22.26
2016-09-16T05:21:34.186Z,22.27
2016-09-16T05:22:27.929Z,22.28
2016-09-16T05:23:33.132Z,22.27
2016-09-16T05:24:34.878Z,22.26
2016-09-16T05:25:27.679Z,22.27
2016-09-16T05:26:23.022Z,22.27
2016-09-16T05:27:24.519Z,22.28
2016-09-16T05:28:21.886Z,22.28
2016-09-16T05:29:21.795Z,22.29
2016-09-16T05:30:27.675Z,22.29
2016-09-16T05:31:34.333Z,22.29
2016-09-16T05:32:26.955Z,22.30
2016-09-16T05:33:26.983Z,22.30
2016-09-16T05:34:26.944Z,22.31
2016-09-16T05:35:33.987Z,22.31
2016-09-16T05:36:27.597Z,22.31
2016-09-16T05:37:27.356Z,22.30
2016-09-16T05:38:33.135Z,22.31
2016-09-16T05:39:31.514Z,22.31
2016-09-16T05:40:32.876Z,22.31
2016-09-16T05:41:28.014Z,22.31
2016-09-16T05:42:33.173Z,22.31
2016-09-16T05:43:32.140Z,22.31
2016-09-16T05:44:15.196Z,22.31
2016-09-16T05:45:31.914Z,22.32
2016-09-16T05:46:32.336Z,22.31
2016-09-16T05:47:33.265Z,22.32
2016-09-16T05:48:31.431Z,22.32
2016-09-16T05:49:33.639Z,22.31
2016-09-16T05:50:27.026Z,22.39
2016-09-16T05:51:39.004Z,22.85
2016-09-16T05:52:32.905Z,22.39
2016-09-16T05:53:33.024Z,22.25
2016-09-16T05:54:23.193Z,21.93
2016-09-16T05:55:38.628Z,21.73
2016-09-16T05:56:26.473Z,21.61
2016-09-16T05:57:35.044Z,21.49
2016-09-16T05:58:33.363Z,21.46
2016-09-16T05:59:33.867Z,21.40
2016-09-16T06:01:25.587Z,21.33
2016-09-16T06:04:28.493Z,21.18
2016-09-16T06:05:50.101Z,21.16
2016-09-16T06:05:50.109Z,21.18
2016-09-16T06:07:19.898Z,21.20
2016-09-16T06:08:10.368Z,21.21
2016-09-16T06:09:22.904Z,21.08
2016-09-16T06:09:58.950Z,21.00
2016-09-16T06:10:36.173Z,20.99
2016-09-16T06:11:31.456Z,21.05
2016-09-16T06:12:21.469Z,21.01
2016-09-16T06:13:28.749Z,21.02
2016-09-16T06:14:31.828Z,21.02
2016-09-16T06:15:31.640Z,21.01
2016-09-16T06:16:34.310Z,21.00
2016-09-16T06:17:36.965Z,20.90
2016-09-16T06:18:28.403Z,20.88
2016-09-16T06:19:33.648Z,20.90
2016-09-16T06:20:40.313Z,20.88
2016-09-16T06:21:36.169Z,20.87
2016-09-16T06:22:29.022Z,21.46
2016-09-16T06:23:38.210Z,21.39
2016-09-16T06:24:32.758Z,21.45
2016-09-16T06:25:35.800Z,21.45
2016-09-16T06:26:30.789Z,20.86
2016-09-16T06:27:28.270Z,20.79
2016-09-16T06:28:32.600Z,20.80
2016-09-16T06:29:33.760Z,20.82
2016-09-16T06:30:22.148Z,20.86
2016-09-16T06:31:31.726Z,20.86
2016-09-16T06:32:33.496Z,20.83
2016-09-16T06:33:35.470Z,20.79
2016-09-16T06:34:28.694Z,20.79
2016-09-16T06:35:32.605Z,20.80
2016-09-16T06:36:33.653Z,20.77
2016-09-16T06:37:34.556Z,20.81
2016-09-16T06:38:30.409Z,20.79
2016-09-16T06:39:32.307Z,20.77
2016-09-16T06:40:37.935Z,20.79
2016-09-16T06:41:32.078Z,20.79
2016-09-16T06:42:33.617Z,20.77
2016-09-16T06:43:33.068Z,20.76
2016-09-16T06:44:39.623Z,20.75
2016-09-16T06:45:33.586Z,20.75
2016-09-16T06:46:38.861Z,20.78
2016-09-16T06:47:32.419Z,20.78
2016-09-16T06:48:26.661Z,20.75
2016-09-16T06:49:26.892Z,20.77
2016-09-16T06:50:30.657Z,20.91
2016-09-16T06:51:33.496Z,21.01
2016-09-16T06:52:32.375Z,21.11
2016-09-16T06:53:32.077Z,21.20
2016-09-16T06:54:37.235Z,21.25
2016-09-16T06:55:27.912Z,21.50
2016-09-16T06:56:32.751Z,21.42
2016-09-16T06:57:30.400Z,21.45
2016-09-16T06:58:29.794Z,21.47
2016-09-16T06:59:27.708Z,21.50
2016-09-16T07:00:32.677Z,21.52
2016-09-16T07:01:35.344Z,21.55
2016-09-16T07:02:28.404Z,21.57
2016-09-16T07:03:33.059Z,21.60
2016-09-16T07:04:28.532Z,21.61
2016-09-16T07:05:33.344Z,21.64
2016-09-16T07:06:27.834Z,21.65
2016-09-16T07:07:33.008Z,21.67
2016-09-16T07:08:17.655Z,21.69
2016-09-16T07:09:26.070Z,21.70
2016-09-16T07:10:34.075Z,21.72
2016-09-16T07:11:33.493Z,21.73
2016-09-16T07:12:34.496Z,21.75
2016-09-16T07:13:33.339Z,21.76
2016-09-16T07:14:29.705Z,21.77
2016-09-16T07:15:36.124Z,21.78
2016-09-16T07:16:22.679Z,21.79
2016-09-16T07:17:18.260Z,21.80
2016-09-16T07:18:32.215Z,21.81
2016-09-16T07:19:33.363Z,21.81
2016-09-16T07:20:29.070Z,21.83
2016-09-16T07:21:36.659Z,21.84
2016-09-16T07:22:34.126Z,21.85
2016-09-16T07:23:26.392Z,21.86
2016-09-16T07:24:33.365Z,21.86
2016-09-16T07:25:29.993Z,21.87
2016-09-16T07:26:38.152Z,21.88
2016-09-16T07:27:28.141Z,21.89
2016-09-16T07:28:34.279Z,21.89
2016-09-16T07:29:33.251Z,21.90
2016-09-16T07:30:30.337Z,21.91
2016-09-16T07:31:28.144Z,21.91
2016-09-16T07:32:33.705Z,21.91
2016-09-16T07:33:32.201Z,21.92
2016-09-16T07:34:22.645Z,21.93
2016-09-16T07:35:27.506Z,21.93
2016-09-16T07:36:32.121Z,21.94
2016-09-16T07:37:22.525Z,21.94
2016-09-16T07:38:25.788Z,21.95
2016-09-16T07:39:36.374Z,21.96
2016-09-16T07:40:28.259Z,21.96
2016-09-16T07:41:29.147Z,21.95
2016-09-16T07:42:29.198Z,21.96
2016-09-16T07:43:39.394Z,21.97
2016-09-16T07:44:33.882Z,21.97
2016-09-16T07:45:23.438Z,21.99
2016-09-16T07:46:38.032Z,21.98
2016-09-16T07:47:28.730Z,21.99
2016-09-16T07:48:25.042Z,21.99
2016-09-16T07:49:30.481Z,22.00
2016-09-16T07:50:32.922Z,22.00
2016-09-16T07:51:28.901Z,22.01
2016-09-16T07:52:38.519Z,22.01
2016-09-16T07:53:22.271Z,22.02
2016-09-16T07:54:41.715Z,22.02
2016-09-16T07:55:24.276Z,22.01
2016-09-16T07:56:34.913Z,22.02
2016-09-16T07:57:34.161Z,22.04
2016-09-16T07:58:29.708Z,22.03
2016-09-16T07:59:33.372Z,22.08
2016-09-16T08:00:22.103Z,22.04
2016-09-16T08:01:28.051Z,22.04
2016-09-16T08:02:33.920Z,22.05
2016-09-16T08:03:30.990Z,22.05
2016-09-16T08:04:33.551Z,22.06
2016-09-16T08:05:21.983Z,22.06
2016-09-16T08:06:33.104Z,22.07
2016-09-16T08:07:26.000Z,22.07
2016-09-16T08:08:26.622Z,22.08
2016-09-16T08:09:26.530Z,22.08
2016-09-16T08:10:28.789Z,22.08
2016-09-16T08:11:34.586Z,22.13
2016-09-16T08:12:29.111Z,22.09
2016-09-16T08:13:33.430Z,22.09
2016-09-16T08:14:33.314Z,22.10
2016-09-16T08:15:39.137Z,22.10
2016-09-16T08:16:27.461Z,22.11
2016-09-16T08:17:18.998Z,22.10
2016-09-16T08:18:32.420Z,22.11
2016-09-16T08:19:38.257Z,22.13
2016-09-16T08:20:34.339Z,22.12
2016-09-16T08:21:35.217Z,22.12
2016-09-16T08:22:33.921Z,22.12
2016-09-16T08:23:39.239Z,22.12
2016-09-16T08:24:28.089Z,22.13
2016-09-16T08:25:29.152Z,22.13
2016-09-16T08:26:34.157Z,22.13
2016-09-16T08:27:32.708Z,22.14
2016-09-16T08:28:22.068Z,22.13
2016-09-16T08:29:32.463Z,22.14
2016-09-16T08:30:33.709Z,22.14
2016-09-16T08:31:33.359Z,22.13
2016-09-16T08:32:30.179Z,22.14
2016-09-16T08:33:31.946Z,22.13
2016-09-16T08:34:33.278Z,22.14
2016-09-16T08:35:32.522Z,22.14
2016-09-16T08:36:33.755Z,22.14
2016-09-16T08:37:36.096Z,22.14
2016-09-16T08:38:21.259Z,22.15
2016-09-16T08:39:37.297Z,22.68
2016-09-16T08:40:29.534Z,22.74
2016-09-16T08:41:37.821Z,22.77
2016-09-16T08:42:26.920Z,22.79
2016-09-16T08:43:34.305Z,22.81
2016-09-16T08:44:27.847Z,22.80
2016-09-16T08:45:31.194Z,22.83
2016-09-16T08:46:28.329Z,22.83
2016-09-16T08:47:28.509Z,22.83
2016-09-16T08:48:25.792Z,22.84
2016-09-16T08:49:33.463Z,22.83
2016-09-16T08:50:39.226Z,22.83
2016-09-16T08:51:27.883Z,22.31
2016-09-16T08:52:29.238Z,22.33
2016-09-16T08:53:34.198Z,22.23
2016-09-16T08:54:38.522Z,22.23
2016-09-16T08:55:33.354Z,22.22
2016-09-16T08:56:28.753Z,22.22
2016-09-16T08:57:32.875Z,22.22
2016-09-16T08:58:28.178Z,22.22
2016-09-16T08:59:33.165Z,22.21
2016-09-16T09:00:34.097Z,22.21
2016-09-16T09:01:34.455Z,22.22
2016-09-16T09:02:29.375Z,22.21
2016-09-16T09:03:14.355Z,22.22
2016-09-16T09:04:33.967Z,22.22
2016-09-16T09:05:35.726Z,22.22
2016-09-16T09:06:34.532Z,22.22
2016-09-16T09:07:23.515Z,22.22
2016-09-16T09:08:33.827Z,22.22
2016-09-16T09:09:31.414Z,22.24
2016-09-16T09:10:28.307Z,22.23
2016-09-16T09:11:34.265Z,22.25
2016-09-16T09:12:28.785Z,22.23
2016-09-16T09:13:22.903Z,22.24
2016-09-16T09:14:22.834Z,22.24
2016-09-16T09:15:33.203Z,22.24
2016-09-16T09:16:33.055Z,22.25
2016-09-16T09:17:40.528Z,22.24
2016-09-16T09:18:33.270Z,22.25
2016-09-16T09:19:28.485Z,22.25
2016-09-16T09:20:30.634Z,22.80
2016-09-16T09:21:32.634Z,22.84
2016-09-16T09:22:15.244Z,22.34
2016-09-16T09:23:34.153Z,22.30
2016-09-16T09:24:37.814Z,22.29
2016-09-16T09:25:37.511Z,22.28
2016-09-16T09:26:29.138Z,22.27
2016-09-16T09:27:33.305Z,22.27
2016-09-16T09:28:28.460Z,22.28
2016-09-16T09:29:24.556Z,22.28
2016-09-16T09:30:33.983Z,22.27
2016-09-16T09:31:26.203Z,22.27
2016-09-16T09:32:33.177Z,22.27
2016-09-16T09:33:32.975Z,22.28
2016-09-16T09:34:30.644Z,22.28
2016-09-16T09:35:22.539Z,22.28
2016-09-16T09:36:26.198Z,22.28
2016-09-16T09:37:32.773Z,22.29
2016-09-16T09:38:32.261Z,22.28
2016-09-16T09:39:37.332Z,22.27
2016-09-16T09:40:32.583Z,22.27
2016-09-16T09:41:33.357Z,22.28
2016-09-16T09:42:33.080Z,22.29
2016-09-16T09:43:28.290Z,22.27
2016-09-16T09:44:38.122Z,22.28
2016-09-16T09:45:33.369Z,22.28
2016-09-16T09:46:32.463Z,22.30
2016-09-16T09:47:32.751Z,22.30
2016-09-16T09:48:32.028Z,22.30
2016-09-16T09:49:16.507Z,22.30
2016-09-16T09:50:32.356Z,22.31
2016-09-16T09:51:29.116Z,22.31
2016-09-16T09:52:34.354Z,22.31
2016-09-16T09:53:29.529Z,22.31
2016-09-16T09:54:29.146Z,22.31
2016-09-16T09:55:35.121Z,22.32
2016-09-16T09:56:32.099Z,22.32
2016-09-16T09:57:33.583Z,22.32
2016-09-16T09:58:32.468Z,22.32
2016-09-16T09:59:26.860Z,22.32
2016-09-16T10:00:32.321Z,22.32
2016-09-16T10:01:29.341Z,22.32
2016-09-16T10:02:26.023Z,22.31
2016-09-16T10:03:33.309Z,22.37
2016-09-16T10:04:34.380Z,22.31
2016-09-16T10:05:28.097Z,22.31
2016-09-16T10:06:34.192Z,22.31
2016-09-16T10:07:38.209Z,22.32
2016-09-16T10:08:28.064Z,22.32
2016-09-16T10:09:27.616Z,22.33
2016-09-16T10:10:20.825Z,22.33
2016-09-16T10:11:27.732Z,22.33
2016-09-16T10:12:32.941Z,22.34
2016-09-16T10:13:28.731Z,22.37
2016-09-16T10:14:33.248Z,22.33
2016-09-16T10:15:28.707Z,22.33
2016-09-16T10:16:27.900Z,22.34
2016-09-16T10:17:27.712Z,22.33
2016-09-16T10:18:29.444Z,22.40
2016-09-16T10:19:26.227Z,22.34
2016-09-16T10:20:24.932Z,22.34
2016-09-16T10:21:38.019Z,22.34
2016-09-16T10:22:27.542Z,22.34
2016-09-16T10:23:33.598Z,22.35
2016-09-16T10:24:27.092Z,22.35
2016-09-16T10:25:34.057Z,22.34
2016-09-16T10:26:33.410Z,22.35
2016-09-16T10:27:25.599Z,22.34
2016-09-16T10:28:37.279Z,22.34
2016-09-16T10:29:34.056Z,22.35
2016-09-16T10:30:43.132Z,22.34
2016-09-16T10:31:33.078Z,22.35
2016-09-16T10:32:32.357Z,22.34
2016-09-16T10:33:34.599Z,22.34
2016-09-16T10:34:28.739Z,22.36
2016-09-16T10:35:27.358Z,22.37
2016-09-16T10:36:33.630Z,22.37
2016-09-16T10:37:30.176Z,22.37
2016-09-16T10:38:28.035Z,22.38
2016-09-16T10:39:31.901Z,22.38
2016-09-16T10:40:32.762Z,22.39
2016-09-16T10:41:31.232Z,22.39
2016-09-16T10:42:33.691Z,22.38
2016-09-16T10:43:27.757Z,22.38
2016-09-16T10:44:33.271Z,22.38
2016-09-16T10:45:29.940Z,22.37
2016-09-16T10:46:25.437Z,22.41
2016-09-16T10:47:32.703Z,22.91
2016-09-16T10:48:27.360Z,22.44
2016-09-16T10:49:27.905Z,22.41
2016-09-16T10:50:34.871Z,22.40
2016-09-16T10:51:35.374Z,22.40
2016-09-16T10:52:28.535Z,22.41
2016-09-16T10:53:34.695Z,22.39
2016-09-16T10:54:22.256Z,22.40
2016-09-16T10:55:27.329Z,22.39
2016-09-16T10:56:29.702Z,22.41
2016-09-16T10:57:40.737Z,22.40
2016-09-16T10:58:29.389Z,22.40
2016-09-16T10:59:39.197Z,22.41
2016-09-16T11:00:32.704Z,22.41
2016-09-16T11:01:27.839Z,22.41
2016-09-16T11:02:34.596Z,22.40
2016-09-16T11:03:15.643Z,22.40
2016-09-16T11:04:32.541Z,22.38
2016-09-16T11:05:23.026Z,22.40
2016-09-16T11:06:32.590Z,22.41
2016-09-16T11:07:30.625Z,22.40
2016-09-16T11:08:33.106Z,22.41
2016-09-16T11:09:24.193Z,22.41
2016-09-16T11:10:26.735Z,22.41
2016-09-16T11:11:33.010Z,22.42
2016-09-16T11:12:34.248Z,22.42
2016-09-16T11:13:33.398Z,22.41
2016-09-16T11:14:27.690Z,22.42
2016-09-16T11:15:33.355Z,22.42
2016-09-16T11:16:34.019Z,22.42
2016-09-16T11:17:32.732Z,22.42
2016-09-16T11:18:37.232Z,22.42
2016-09-16T11:19:15.599Z,22.42
2016-09-16T11:20:26.153Z,22.42
2016-09-16T11:21:33.583Z,22.47
2016-09-16T11:22:22.869Z,22.42
2016-09-16T11:23:33.258Z,22.42
2016-09-16T11:24:32.033Z,22.45
2016-09-16T11:25:32.042Z,22.43
2016-09-16T11:26:26.531Z,22.41
2016-09-16T11:27:22.757Z,22.42
2016-09-16T11:28:39.361Z,22.97
2016-09-16T11:29:27.377Z,22.48
2016-09-16T11:30:29.443Z,22.45
2016-09-16T11:31:22.640Z,22.48
2016-09-16T11:32:32.675Z,22.43
2016-09-16T11:33:28.936Z,22.43
2016-09-16T11:34:24.569Z,22.43
2016-09-16T11:35:27.433Z,22.96
2016-09-16T11:36:31.987Z,22.68
2016-09-16T11:37:33.713Z,22.50
2016-09-16T11:38:34.974Z,22.47
2016-09-16T11:39:38.254Z,22.45
2016-09-16T11:40:31.973Z,22.45
2016-09-16T11:41:22.156Z,22.45
2016-09-16T11:42:26.462Z,22.44
2016-09-16T11:43:26.075Z,22.45
2016-09-16T11:44:33.445Z,22.45
2016-09-16T11:45:25.740Z,22.45
2016-09-16T11:46:28.417Z,22.45
2016-09-16T11:47:33.916Z,22.45
2016-09-16T11:48:31.385Z,22.44
2016-09-16T11:49:39.042Z,22.44
2016-09-16T11:50:31.162Z,22.45
2016-09-16T11:51:43.100Z,22.43
2016-09-16T11:52:32.865Z,22.45
2016-09-16T11:53:33.167Z,22.45
2016-09-16T11:54:27.529Z,22.45
2016-09-16T11:55:27.273Z,22.44
2016-09-16T11:56:34.163Z,22.48
2016-09-16T11:57:35.991Z,22.45
2016-09-16T11:58:27.087Z,22.45
2016-09-16T11:59:27.413Z,22.46
2016-09-16T12:00:15.900Z,22.46
2016-09-16T12:01:27.983Z,22.46
2016-09-16T12:02:29.475Z,22.46
2016-09-16T12:03:30.916Z,22.46
2016-09-16T12:04:34.117Z,22.46
2016-09-16T12:05:28.647Z,22.46
2016-09-16T12:06:34.024Z,22.46
2016-09-16T12:07:21.933Z,22.46
2016-09-16T12:08:36.893Z,22.46
2016-09-16T12:09:32.497Z,22.46
2016-09-16T12:10:33.122Z,22.45
2016-09-16T12:11:28.302Z,22.45
2016-09-16T12:12:33.238Z,22.51
2016-09-16T12:13:28.133Z,22.46
2016-09-16T12:14:37.553Z,22.46
2016-09-16T12:15:34.646Z,22.45
2016-09-16T12:16:32.135Z,22.45
2016-09-16T12:17:14.993Z,22.46
2016-09-16T12:18:28.501Z,22.45
2016-09-16T12:19:28.169Z,22.45
2016-09-16T12:20:27.868Z,22.48
2016-09-16T12:21:33.790Z,22.44
2016-09-16T12:22:28.285Z,22.45
2016-09-16T12:23:33.038Z,22.45
2016-09-16T12:24:33.051Z,22.45
2016-09-16T12:25:34.525Z,22.45
2016-09-16T12:26:33.892Z,22.45
2016-09-16T12:27:39.255Z,22.45
2016-09-16T12:28:27.194Z,22.44
2016-09-16T12:29:32.385Z,22.44
2016-09-16T12:30:33.682Z,22.45
2016-09-16T12:31:22.383Z,22.45
2016-09-16T12:32:28.426Z,22.45
2016-09-16T12:33:29.535Z,22.97
2016-09-16T12:34:33.843Z,22.67
2016-09-16T12:35:28.976Z,22.53
2016-09-16T12:36:28.647Z,22.49
2016-09-16T12:37:33.864Z,22.47
2016-09-16T12:38:33.799Z,22.46
2016-09-16T12:39:38.790Z,22.43
2016-09-16T12:40:32.548Z,22.96
2016-09-16T12:41:39.247Z,22.50
2016-09-16T12:42:27.108Z,22.46
2016-09-16T12:43:37.357Z,22.45
2016-09-16T12:44:32.675Z,22.45
2016-09-16T12:45:29.075Z,22.44
2016-09-16T12:46:31.337Z,22.44
2016-09-16T12:47:34.930Z,22.43
2016-09-16T12:48:38.249Z,22.43
2016-09-16T12:49:34.720Z,22.43
2016-09-16T12:50:28.248Z,22.42
2016-09-16T12:51:33.773Z,22.43
2016-09-16T12:52:33.692Z,22.43
2016-09-16T12:53:28.787Z,22.42
2016-09-16T12:54:32.240Z,22.44